Time;durP1;ratioP1;P1;durP2;ratioP2;P2;SDS_P1;SDS_P2;PMS_P1;PMS_P2;Temp;Humidity;BMP_temperature;BMP_pressure;BME280_temperature;BME280_humidity;BME280_pressure;Samples;Min_cycle;Max_cycle;Signal;HPM_P1;HPM_P2
2022/03/17 00:00:02;;;;;;;26.90;17.10;;;6.90;83.10;;;;;;6068407;23;20159;-90
2022/03/17 00:02:28;;;;;;;26.50;17.43;;;6.90;83.10;;;;;;6068520;23;20164;-89
2022/03/17 00:04:53;;;;;;;26.73;17.17;;;6.90;83.30;;;;;;6070312;23;20196;-89
2022/03/17 00:07:19;;;;;;;30.40;17.13;;;6.80;83.30;;;;;;6070175;23;20175;-89
2022/03/17 00:09:45;;;;;;;30.07;18.73;;;6.80;83.50;;;;;;6068740;23;20155;-89
2022/03/17 00:12:13;;;;;;;26.97;17.10;;;6.80;83.60;;;;;;6070304;23;20158;-88
2022/03/17 00:14:38;;;;;;;28.47;17.87;;;6.80;83.60;;;;;;6069850;23;20197;-88
2022/03/17 00:17:04;;;;;;;30.37;19.37;;;6.80;83.60;;;;;;6069167;23;20596;-88
2022/03/17 00:19:30;;;;;;;26.47;18.20;;;6.80;83.60;;;;;;6068782;23;20163;-88
2022/03/17 00:21:55;;;;;;;28.07;18.07;;;6.80;83.70;;;;;;6070296;23;20164;-88
2022/03/17 00:24:21;;;;;;;29.67;18.80;;;6.70;83.70;;;;;;6070401;23;20197;-87
2022/03/17 00:26:49;;;;;;;28.10;18.93;;;6.80;83.70;;;;;;6069715;23;20183;-88
2022/03/17 00:29:16;;;;;;;28.17;18.80;;;6.80;83.50;;;;;;6069182;23;20143;-87
2022/03/17 00:31:42;;;;;;;29.93;19.10;;;6.70;83.60;;;;;;6068936;23;20159;-88
2022/03/17 00:34:08;;;;;;;33.37;19.93;;;6.80;83.50;;;;;;6070504;23;20202;-88
2022/03/17 00:36:34;;;;;;;30.80;20.53;;;6.80;83.60;;;;;;6069998;23;20515;-88
2022/03/17 00:39:01;;;;;;;27.70;18.90;;;6.70;83.60;;;;;;6068240;23;20167;-89
2022/03/17 00:41:26;;;;;;;35.23;19.60;;;6.80;83.60;;;;;;6068471;23;20241;-88
2022/03/17 00:43:52;;;;;;;32.47;19.47;;;6.70;83.60;;;;;;6069669;23;20210;-88
2022/03/17 00:46:18;;;;;;;34.40;20.80;;;6.70;83.70;;;;;;6070389;23;20182;-87
2022/03/17 00:48:43;;;;;;;35.63;21.30;;;6.70;83.80;;;;;;6068352;23;20163;-88
2022/03/17 00:51:09;;;;;;;33.80;21.13;;;6.70;83.70;;;;;;6068205;23;20159;-88
2022/03/17 00:53:34;;;;;;;37.33;21.80;;;6.70;83.60;;;;;;6070172;23;20171;-87
2022/03/17 00:56:00;;;;;;;36.13;22.67;;;6.70;83.60;;;;;;6070133;23;20170;-88
2022/03/17 00:58:28;;;;;;;32.67;21.20;;;6.70;83.50;;;;;;6070177;23;20167;-87
2022/03/17 01:00:53;;;;;;;35.03;21.53;;;6.70;83.50;;;;;;6068402;23;20166;-87
2022/03/17 01:03:19;;;;;;;30.50;19.33;;;6.70;83.40;;;;;;6068315;23;20242;-87
2022/03/17 01:05:45;;;;;;;30.47;20.30;;;6.70;83.40;;;;;;6070774;23;20265;-88
2022/03/17 01:08:10;;;;;;;38.17;22.83;;;6.70;83.30;;;;;;6070359;23;20158;-87
2022/03/17 01:10:38;;;;;;;36.93;22.80;;;6.70;83.40;;;;;;6070910;23;20461;-87
2022/03/17 01:13:05;;;;;;;36.37;22.93;;;6.70;83.40;;;;;;6071254;23;20151;-88
2022/03/17 01:15:30;;;;;;;34.20;21.20;;;6.70;83.40;;;;;;6070950;23;20178;-88
2022/03/17 01:17:56;;;;;;;40.37;23.47;;;6.70;83.50;;;;;;6072670;23;20162;-88
2022/03/17 01:20:21;;;;;;;33.93;22.00;;;6.70;83.40;;;;;;6071024;23;20475;-87
2022/03/17 01:22:47;;;;;;;39.43;23.63;;;6.70;83.50;;;;;;6069526;23;20622;-88
2022/03/17 01:25:13;;;;;;;37.67;23.47;;;6.70;83.50;;;;;;6071371;23;20175;-88
2022/03/17 01:27:39;;;;;;;40.77;23.43;;;6.70;83.50;;;;;;6069679;23;20639;-88
2022/03/17 01:30:09;;;;;;;41.33;24.77;;;6.70;83.70;;;;;;6071576;23;20151;-88
2022/03/17 01:32:36;;;;;;;36.83;24.23;;;6.70;83.70;;;;;;6070921;23;20202;-88
2022/03/17 01:35:02;;;;;;;37.50;23.13;;;6.80;83.60;;;;;;6072736;23;20170;-89
2022/03/17 01:37:28;;;;;;;41.97;24.07;;;6.70;83.70;;;;;;6071772;23;20155;-89
2022/03/17 01:39:54;;;;;;;44.20;25.03;;;6.70;83.80;;;;;;6070396;23;20206;-88
2022/03/17 01:42:19;;;;;;;37.57;24.17;;;6.70;83.90;;;;;;6070243;23;20173;-90
2022/03/17 01:44:45;;;;;;;40.33;25.30;;;6.70;83.80;;;;;;6068955;23;20742;-90
2022/03/17 01:47:29;;;;;;;44.13;25.97;;;6.70;83.80;;;;;;6069096;23;20190;-90
2022/03/17 01:49:56;;;;;;;44.10;26.10;;;6.80;83.70;;;;;;6068883;23;20151;-90
2022/03/17 01:52:22;;;;;;;43.30;26.53;;;6.70;83.80;;;;;;6068835;23;20269;-90
2022/03/17 01:54:49;;;;;;;44.10;28.40;;;6.70;83.70;;;;;;6068934;23;20176;-90
2022/03/17 01:57:14;;;;;;;39.70;25.53;;;6.70;83.80;;;;;;6069737;23;20656;-90
2022/03/17 01:59:40;;;;;;;46.00;28.27;;;6.70;83.90;;;;;;6068691;23;20187;-90
2022/03/17 02:02:08;;;;;;;42.60;28.17;;;6.70;84.00;;;;;;6068878;23;20173;-90
2022/03/17 02:04:35;;;;;;;45.10;27.77;;;6.70;83.90;;;;;;6070333;23;20266;-90
2022/03/17 02:07:04;;;;;;;45.37;27.83;;;6.70;84.00;;;;;;6068782;23;20238;-90
2022/03/17 02:09:29;;;;;;;43.90;28.17;;;6.70;84.20;;;;;;6070484;23;20155;-91
2022/03/17 02:14:54;;;;;;;48.43;30.37;;;6.70;84.30;;;;;;6070156;23;20185;-90
2022/03/17 02:17:22;;;;;;;42.80;26.40;;;6.70;84.30;;;;;;6069715;23;20190;-90
2022/03/17 02:19:48;;;;;;;49.30;29.07;;;6.70;84.30;;;;;;6070284;23;20162;-90
2022/03/17 02:22:17;;;;;;;52.10;32.73;;;6.70;84.40;;;;;;6070282;23;20159;-90
2022/03/17 02:27:31;;;;;;;45.93;27.97;;;6.70;84.40;;;;;;6070325;23;20185;-90
2022/03/17 02:29:56;;;;;;;51.60;30.80;;;6.70;84.40;;;;;;6070575;23;20152;-90
2022/03/17 02:32:22;;;;;;;52.23;30.60;;;6.70;84.50;;;;;;6068667;23;20210;-90
2022/03/17 02:34:48;;;;;;;51.03;29.23;;;6.70;84.50;;;;;;6068610;23;20230;-90
2022/03/17 02:37:15;;;;;;;48.20;28.90;;;6.60;84.60;;;;;;6068765;23;20159;-90
2022/03/17 02:39:42;;;;;;;51.33;31.47;;;6.70;84.60;;;;;;6070984;23;20163;-90
2022/03/17 02:42:10;;;;;;;51.97;30.90;;;6.70;84.60;;;;;;6068483;23;20628;-90
2022/03/17 02:44:38;;;;;;;49.07;30.63;;;6.60;84.70;;;;;;6070023;23;20179;-90
2022/03/17 02:47:05;;;;;;;50.13;32.57;;;6.60;84.80;;;;;;6070301;23;20179;-89
2022/03/17 02:49:31;;;;;;;50.83;31.87;;;6.60;84.80;;;;;;6068504;23;20211;-90
2022/03/17 02:51:56;;;;;;;51.37;31.90;;;6.60;84.80;;;;;;6070235;23;20156;-90
2022/03/17 02:54:22;;;;;;;48.83;30.77;;;6.60;84.90;;;;;;6069986;23;20592;-90
2022/03/17 02:56:48;;;;;;;52.53;33.23;;;6.70;84.90;;;;;;6068617;23;20607;-89
2022/03/17 02:59:13;;;;;;;51.20;33.27;;;6.70;84.90;;;;;;6068654;23;20169;-89
2022/03/17 03:01:39;;;;;;;50.07;30.73;;;6.60;84.90;;;;;;6068334;23;20613;-90
2022/03/17 03:04:05;;;;;;;52.80;32.77;;;6.60;84.90;;;;;;6068796;23;20175;-90
2022/03/17 03:06:31;;;;;;;49.63;33.30;;;6.60;84.90;;;;;;6068927;23;20647;-90
2022/03/17 03:08:56;;;;;;;52.57;33.17;;;6.60;85.00;;;;;;6070385;23;20154;-90
2022/03/17 03:11:22;;;;;;;53.17;33.37;;;6.60;85.00;;;;;;6068459;23;20154;-90
2022/03/17 03:13:47;;;;;;;52.13;33.17;;;6.60;84.90;;;;;;6068575;23;20166;-89
2022/03/17 03:16:13;;;;;;;51.33;33.23;;;6.70;85.00;;;;;;6068544;23;20548;-90
2022/03/17 03:18:40;;;;;;;53.37;34.83;;;6.60;85.00;;;;;;6070316;23;20238;-90
2022/03/17 03:21:07;;;;;;;55.00;33.53;;;6.60;85.10;;;;;;6068386;23;20250;-89
2022/03/17 03:23:33;;;;;;;49.10;29.33;;;6.60;85.10;;;;;;6068660;23;20666;-91
2022/03/17 03:25:59;;;;;;;56.40;33.53;;;6.70;85.10;;;;;;6070007;23;20230;-90
2022/03/17 03:28:25;;;;;;;53.43;34.87;;;6.70;85.00;;;;;;6069814;23;20234;-90
2022/03/17 03:30:50;;;;;;;54.80;34.23;;;6.70;84.90;;;;;;6070451;23;20147;-90
2022/03/17 03:33:16;;;;;;;55.53;34.63;;;6.70;84.80;;;;;;6067996;23;20238;-90
2022/03/17 03:38:26;;;;;;;53.27;33.57;;;6.70;84.60;;;;;;6069971;23;20171;-90
2022/03/17 03:40:52;;;;;;;54.50;34.40;;;6.70;84.50;;;;;;6069350;23;20156;-91
2022/03/17 03:43:18;;;;;;;49.43;32.00;;;6.80;84.40;;;;;;6068024;23;20600;-90
2022/03/17 03:45:43;;;;;;;46.67;28.50;;;6.80;84.40;;;;;;6067932;23;20178;-91
2022/03/17 03:48:09;;;;;;;53.20;32.03;;;6.80;84.50;;;;;;6068067;23;20163;-90
2022/03/17 03:50:37;;;;;;;53.90;34.00;;;6.80;84.50;;;;;;6067788;23;20615;-90
2022/03/17 03:53:03;;;;;;;49.00;30.67;;;6.70;84.60;;;;;;6069378;23;20159;-90
2022/03/17 03:55:29;;;;;;;52.80;34.60;;;6.80;84.40;;;;;;6067742;23;20202;-90
2022/03/17 03:57:54;;;;;;;55.00;33.83;;;6.80;84.30;;;;;;6067982;23;20163;-90
2022/03/17 04:02:56;;;;;;;55.00;34.97;;;6.80;84.10;;;;;;6079845;23;20146;-91
2022/03/17 04:05:44;;;;;;;55.30;35.97;;;6.80;84.00;;;;;;6067407;23;20206;-90
2022/03/17 04:08:09;;;;;;;54.80;35.57;;;6.80;84.00;;;;;;6069022;23;20163;-90
2022/03/17 04:10:34;;;;;;;51.60;35.93;;;6.80;84.10;;;;;;6073099;23;20154;-90
2022/03/17 04:13:00;;;;;;;56.87;38.17;;;6.80;84.20;;;;;;6067588;23;20158;-90
2022/03/17 04:15:26;;;;;;;54.03;36.53;;;6.80;84.10;;;;;;6069670;23;20305;-90
2022/03/17 04:17:51;;;;;;;55.07;36.10;;;6.90;84.00;;;;;;6069721;23;20162;-90
2022/03/17 04:20:17;;;;;;;50.67;34.27;;;6.90;83.90;;;;;;6069527;23;20162;-90
2022/03/17 04:22:43;;;;;;;52.07;34.90;;;6.90;83.80;;;;;;6069575;23;20615;-90
2022/03/17 04:25:09;;;;;;;55.90;35.33;;;6.90;83.70;;;;;;6067829;23;20178;-91
2022/03/17 04:27:34;;;;;;;53.93;36.33;;;6.90;83.60;;;;;;6069193;23;20189;-90
2022/03/17 04:30:00;;;;;;;52.57;35.97;;;6.90;83.50;;;;;;6069163;23;20492;-90
2022/03/17 04:32:25;;;;;;;51.43;34.97;;;6.90;83.50;;;;;;6068128;23;20242;-90
2022/03/17 04:34:51;;;;;;;55.30;37.30;;;7.00;83.40;;;;;;6069095;23;20180;-90
2022/03/17 04:37:16;;;;;;;54.20;36.10;;;7.00;83.40;;;;;;6067900;23;20159;-91
2022/03/17 04:39:42;;;;;;;54.23;37.03;;;6.90;83.40;;;;;;6069247;23;20497;-90
2022/03/17 04:42:09;;;;;;;51.70;36.80;;;6.90;83.40;;;;;;6068237;23;20163;-90
2022/03/17 04:44:35;;;;;;;57.67;39.10;;;7.00;83.30;;;;;;6067884;23;20210;-90
2022/03/17 04:47:00;;;;;;;57.57;38.30;;;6.90;83.50;;;;;;6067717;23;20183;-90
2022/03/17 04:49:26;;;;;;;57.57;37.33;;;6.90;83.30;;;;;;6067756;23;20162;-91
2022/03/17 04:51:52;;;;;;;55.33;36.40;;;6.90;83.30;;;;;;6069234;23;20146;-90
2022/03/17 04:54:17;;;;;;;58.20;37.87;;;6.90;83.30;;;;;;6069486;23;20148;-90
2022/03/17 04:56:43;;;;;;;53.17;35.30;;;7.00;83.20;;;;;;6067775;23;20163;-90
2022/03/17 04:59:08;;;;;;;53.33;36.63;;;7.00;83.30;;;;;;6067836;23;20486;-90
2022/03/17 05:01:34;;;;;;;55.83;38.33;;;6.90;83.20;;;;;;6067718;23;20166;-90
2022/03/17 05:03:59;;;;;;;57.03;36.23;;;6.90;83.20;;;;;;6068551;23;20159;-89
2022/03/17 05:06:25;;;;;;;60.23;39.47;;;6.90;83.10;;;;;;6068700;23;21028;-88
2022/03/17 05:08:50;;;;;;;61.83;37.37;;;6.90;83.20;;;;;;6042854;23;20174;-89
2022/03/17 05:11:16;;;;;;;54.27;36.13;;;6.90;83.40;;;;;;6042713;23;20155;-89
2022/03/17 05:13:43;;;;;;;55.97;38.23;;;6.90;83.30;;;;;;6043317;23;20159;-89
2022/03/17 05:16:09;;;;;;;53.93;38.53;;;7.00;83.20;;;;;;6068110;23;20169;-88
2022/03/17 05:18:35;;;;;;;56.03;38.03;;;7.00;83.20;;;;;;6042731;23;20167;-89
2022/03/17 05:21:01;;;;;;;51.90;35.63;;;6.90;83.20;;;;;;6068079;23;20160;-89
2022/03/17 05:23:27;;;;;;;54.17;35.67;;;6.90;83.10;;;;;;6068139;23;20156;-89
2022/03/17 05:25:52;;;;;;;57.17;37.87;;;7.00;83.10;;;;;;6068323;23;20152;-89
2022/03/17 05:28:19;;;;;;;60.17;39.77;;;7.00;83.10;;;;;;6042556;23;20178;-89
2022/03/17 05:30:45;;;;;;;56.70;37.80;;;6.90;83.10;;;;;;6042651;23;20211;-89
2022/03/17 05:33:11;;;;;;;55.03;39.17;;;7.00;83.00;;;;;;6067971;23;20565;-89
2022/03/17 05:35:38;;;;;;;58.37;40.17;;;7.00;83.00;;;;;;6068011;23;20159;-89
2022/03/17 05:38:04;;;;;;;56.93;38.83;;;7.00;83.00;;;;;;6043168;23;20796;-89
2022/03/17 05:40:30;;;;;;;53.57;37.40;;;7.00;83.10;;;;;;6068364;23;20215;-89
2022/03/17 05:43:02;;;;;;;55.87;39.57;;;7.00;83.00;;;;;;6042710;23;20185;-89
2022/03/17 05:45:29;;;;;;;57.97;39.37;;;7.00;82.90;;;;;;6067882;23;20152;-89
2022/03/17 05:48:00;;;;;;;57.13;38.87;;;7.00;83.10;;;;;;6042565;23;20191;-89
2022/03/17 05:50:33;;;;;;;57.83;41.63;;;7.00;83.00;;;;;;6043736;23;20171;-89
2022/03/17 05:52:58;;;;;;;57.27;39.67;;;7.00;82.90;;;;;;6044544;23;20151;-89
2022/03/17 05:55:25;;;;;;;56.23;40.43;;;7.00;83.00;;;;;;6070339;23;20238;-89
2022/03/17 05:57:54;;;;;;;59.83;40.47;;;7.00;82.90;;;;;;6044575;23;20193;-89
2022/03/17 06:00:23;;;;;;;59.67;40.30;;;7.10;82.80;;;;;;6044190;23;20167;-89
2022/03/17 06:02:49;;;;;;;55.33;39.13;;;7.00;83.00;;;;;;6069674;23;20156;-89
2022/03/17 06:05:14;;;;;;;55.87;39.30;;;7.10;83.00;;;;;;6044941;23;20499;-89
2022/03/17 06:07:42;;;;;;;61.07;41.20;;;7.10;82.80;;;;;;6069325;23;20202;-89
2022/03/17 06:10:10;;;;;;;61.57;41.20;;;7.10;82.90;;;;;;6069587;23;20147;-89
2022/03/17 06:12:36;;;;;;;63.93;40.07;;;7.10;83.00;;;;;;6068097;23;20159;-89
2022/03/17 06:15:02;;;;;;;59.13;40.13;;;7.00;83.00;;;;;;6068065;23;20155;-89
2022/03/17 06:17:41;;;;;;;56.43;39.80;;;7.10;83.00;;;;;;6068033;23;20210;-89
2022/03/17 06:20:10;;;;;;;62.73;42.07;;;7.10;82.90;;;;;;6068185;23;20493;-89
2022/03/17 06:22:40;;;;;;;59.93;41.43;;;7.10;82.90;;;;;;6068071;23;20238;-89
2022/03/17 06:25:08;;;;;;;63.93;43.27;;;7.20;82.90;;;;;;6068081;23;20151;-89
2022/03/17 06:27:36;;;;;;;56.13;40.60;;;7.10;82.80;;;;;;6069242;23;20254;-89
2022/03/17 06:30:04;;;;;;;56.97;42.60;;;7.20;82.80;;;;;;6067916;23;20271;-89
2022/03/17 06:32:29;;;;;;;59.87;43.67;;;7.20;83.00;;;;;;6067913;23;20187;-89
2022/03/17 06:34:55;;;;;;;57.60;40.83;;;7.10;82.90;;;;;;6069714;23;20155;-89
2022/03/17 06:37:20;;;;;;;58.97;39.97;;;7.10;82.50;;;;;;6067814;23;20210;-89
2022/03/17 06:39:46;;;;;;;62.37;41.90;;;7.20;82.70;;;;;;6067833;23;20163;-89
2022/03/17 06:42:12;;;;;;;59.53;40.43;;;7.20;82.60;;;;;;6067847;23;20238;-89
2022/03/17 06:44:37;;;;;;;57.07;42.10;;;7.20;82.70;;;;;;6069572;23;20584;-89
2022/03/17 06:47:03;;;;;;;61.93;44.53;;;7.20;82.70;;;;;;6069136;23;20210;-89
2022/03/17 06:49:28;;;;;;;57.00;41.17;;;7.20;82.60;;;;;;6068846;23;20163;-89
2022/03/17 06:51:54;;;;;;;62.43;42.33;;;7.30;82.50;;;;;;6067795;23;20599;-89
2022/03/17 06:54:20;;;;;;;60.00;41.00;;;7.30;82.60;;;;;;6067757;23;20156;-89
2022/03/17 06:56:45;;;;;;;60.63;40.90;;;7.30;82.60;;;;;;6067991;23;20183;-89
2022/03/17 06:59:11;;;;;;;58.30;41.90;;;7.20;82.60;;;;;;6067673;23;20159;-89
2022/03/17 07:01:36;;;;;;;61.57;41.30;;;7.30;82.30;;;;;;6067709;23;20163;-89
2022/03/17 07:04:02;;;;;;;59.33;40.67;;;7.30;82.40;;;;;;6067178;23;20158;-89
2022/03/17 07:06:27;;;;;;;58.07;42.30;;;7.30;82.30;;;;;;6067266;23;20655;-89
2022/03/17 07:08:53;;;;;;;58.47;41.07;;;7.30;82.20;;;;;;6067726;23;20175;-89
2022/03/17 07:11:20;;;;;;;52.80;38.43;;;7.30;82.30;;;;;;6067627;23;20611;-88
2022/03/17 07:13:46;;;;;;;55.13;40.20;;;7.30;82.50;;;;;;6069182;23;20171;-88
2022/03/17 07:16:12;;;;;;;56.10;41.43;;;7.30;82.60;;;;;;6068867;23;20211;-88
2022/03/17 07:18:38;;;;;;;56.50;41.20;;;7.30;82.60;;;;;;6069064;23;20155;-88
2022/03/17 07:21:04;;;;;;;58.13;41.97;;;7.40;82.70;;;;;;6067405;23;20475;-89
2022/03/17 07:23:29;;;;;;;60.60;40.90;;;7.40;82.70;;;;;;6067586;23;20159;-89
2022/03/17 07:25:55;;;;;;;57.87;41.13;;;7.40;82.60;;;;;;6068792;23;20545;-89
2022/03/17 07:28:21;;;;;;;54.50;39.77;;;7.40;82.70;;;;;;6067380;23;20262;-89
2022/03/17 07:30:49;;;;;;;56.80;41.53;;;7.40;82.30;;;;;;6067389;23;20160;-89
2022/03/17 07:33:15;;;;;;;57.47;40.63;;;7.40;82.10;;;;;;6067401;23;20515;-89
2022/03/17 07:35:41;;;;;;;64.30;40.60;;;7.50;82.10;;;;;;6067417;23;20156;-89
2022/03/17 07:38:06;;;;;;;57.40;40.60;;;7.50;82.20;;;;;;6067445;23;20183;-89
2022/03/17 07:40:33;;;;;;;56.57;40.37;;;7.60;81.90;;;;;;6067334;23;20210;-89
2022/03/17 07:43:00;;;;;;;62.90;40.67;;;7.60;81.40;;;;;;6068272;23;20154;-89
2022/03/17 07:45:26;;;;;;;51.37;38.93;;;7.60;81.40;;;;;;6067358;23;20182;-89
2022/03/17 07:47:51;;;;;;;58.03;41.83;;;7.60;81.30;;;;;;6067625;23;20202;-89
2022/03/17 07:50:18;;;;;;;59.53;39.63;;;7.70;81.10;;;;;;6067386;23;20151;-88
2022/03/17 07:52:43;;;;;;;54.00;40.10;;;7.80;80.90;;;;;;6068200;23;20234;-88
2022/03/17 07:55:09;;;;;;;52.17;39.60;;;7.80;80.80;;;;;;6067127;23;20210;-88
2022/03/17 07:57:36;;;;;;;55.73;39.57;;;7.70;80.60;;;;;;6067236;23;20644;-88
2022/03/17 08:00:04;;;;;;;55.17;39.20;;;7.70;80.70;;;;;;6067505;23;20249;-89
2022/03/17 08:02:30;;;;;;;54.67;38.87;;;7.70;80.90;;;;;;6068664;23;20183;-88
2022/03/17 08:04:56;;;;;;;56.20;39.67;;;7.70;80.90;;;;;;6067147;23;20160;-89
2022/03/17 08:07:22;;;;;;;52.43;37.47;;;7.70;81.00;;;;;;6066747;23;20198;-89
2022/03/17 08:09:48;;;;;;;53.20;38.70;;;7.70;80.80;;;;;;6067044;23;20160;-89
2022/03/17 08:12:13;;;;;;;50.03;38.43;;;7.80;80.80;;;;;;6067018;23;20156;-89
2022/03/17 08:14:39;;;;;;;53.27;39.23;;;7.80;80.80;;;;;;6066858;23;20210;-89
2022/03/17 08:17:04;;;;;;;51.33;37.77;;;7.70;80.90;;;;;;6066959;23;20180;-89
2022/03/17 08:19:31;;;;;;;52.33;39.00;;;7.70;81.00;;;;;;6067302;23;20160;-89
2022/03/17 08:21:57;;;;;;;48.50;33.50;;;7.80;81.10;;;;;;6067306;23;20164;-89
2022/03/17 08:24:23;;;;;;;52.30;38.77;;;7.80;81.10;;;;;;6068628;23;20230;-88
2022/03/17 08:26:48;;;;;;;51.43;39.10;;;7.80;81.50;;;;;;6066813;23;20202;-88
2022/03/17 08:29:14;;;;;;;53.33;39.87;;;7.80;81.70;;;;;;6068381;23;20169;-89
2022/03/17 08:31:40;;;;;;;53.67;40.57;;;7.70;82.00;;;;;;6066917;23;20156;-89
2022/03/17 08:34:05;;;;;;;56.80;39.47;;;7.70;82.50;;;;;;6066976;23;20160;-89
2022/03/17 08:36:31;;;;;;;54.83;39.27;;;7.70;83.20;;;;;;6066787;23;20567;-88
2022/03/17 08:38:56;;;;;;;57.60;39.70;;;7.70;83.60;;;;;;6066823;23;20234;-89
2022/03/17 08:41:22;;;;;;;51.93;40.90;;;7.70;83.80;;;;;;6068410;23;20151;-89
2022/03/17 08:43:49;;;;;;;54.30;37.87;;;7.70;84.00;;;;;;6068418;23;20155;-89
2022/03/17 08:51:42;;;;;;;47.97;35.87;;;7.70;84.90;;;;;;6068417;23;20482;-88
2022/03/17 08:54:09;;;;;;;55.67;40.53;;;7.70;84.90;;;;;;6066748;23;20160;-88
2022/03/17 08:56:36;;;;;;;51.80;39.83;;;7.70;85.40;;;;;;6068421;23;20222;-88
2022/03/17 08:59:06;;;;;;;53.87;38.90;;;7.60;85.80;;;;;;6066704;23;20160;-88
2022/03/17 09:01:32;;;;;;;55.10;40.40;;;7.70;85.80;;;;;;6068284;23;20206;-88
2022/03/17 09:03:57;;;;;;;55.00;40.23;;;7.60;86.20;;;;;;6068810;23;20183;-89
2022/03/17 09:06:24;;;;;;;56.40;38.73;;;7.70;86.50;;;;;;6067158;23;20191;-90
2022/03/17 09:08:50;;;;;;;53.67;40.20;;;7.60;86.90;;;;;;6067585;23;20178;-91
2022/03/17 09:11:16;;;;;;;53.60;38.40;;;7.60;87.30;;;;;;6068161;23;20164;-91
2022/03/17 09:13:41;;;;;;;57.13;41.50;;;7.60;87.30;;;;;;6068989;23;20158;-91
2022/03/17 09:16:08;;;;;;;53.27;40.77;;;7.60;87.60;;;;;;6067432;23;20159;-90
2022/03/17 09:18:34;;;;;;;59.63;40.30;;;7.60;87.80;;;;;;6067771;23;20166;-91
2022/03/17 09:21:00;;;;;;;57.13;41.03;;;7.60;88.20;;;;;;6067734;23;20210;-91
2022/03/17 09:23:26;;;;;;;61.03;44.07;;;7.50;88.40;;;;;;6067930;23;20163;-90
2022/03/17 09:25:53;;;;;;;52.57;37.70;;;7.50;88.60;;;;;;6067566;23;20156;-90
2022/03/17 09:28:19;;;;;;;52.30;34.23;;;7.50;88.80;;;;;;6070210;23;20653;-90
2022/03/17 09:30:44;;;;;;;54.97;39.63;;;7.50;89.00;;;;;;6069448;23;20155;-90
2022/03/17 09:33:13;;;;;;;57.47;42.83;;;7.50;89.40;;;;;;6070839;23;20152;-90
2022/03/17 09:35:39;;;;;;;67.67;46.00;;;7.50;89.60;;;;;;6070823;23;20178;-91
2022/03/17 09:38:05;;;;;;;62.83;47.23;;;7.40;89.80;;;;;;6069658;23;20175;-90
2022/03/17 09:40:31;;;;;;;63.33;44.30;;;7.40;90.00;;;;;;6071218;23;20156;-91
2022/03/17 09:45:42;;;;;;;61.83;42.07;;;7.40;90.40;;;;;;6071218;23;20147;-90
2022/03/17 09:48:14;;;;;;;60.07;43.43;;;7.40;90.50;;;;;;6069673;23;20518;-91
2022/03/17 09:50:41;;;;;;;60.10;41.97;;;7.40;90.50;;;;;;6069214;23;20234;-91
2022/03/17 09:53:07;;;;;;;43.87;27.60;;;7.50;90.70;;;;;;6070738;23;20529;-91
2022/03/17 09:55:34;;;;;;;44.87;25.10;;;7.40;90.90;;;;;;6068779;23;20642;-90
2022/03/17 09:58:02;;;;;;;58.00;40.30;;;7.40;91.10;;;;;;6069440;23;20699;-91
2022/03/17 10:00:47;;;;;;;58.00;38.47;;;7.40;91.30;;;;;;6070015;23;20163;-88
2022/03/17 10:03:34;;;;;;;45.37;29.33;;;7.50;91.40;;;;;;6069175;23;20229;-88
2022/03/17 10:06:05;;;;;;;66.93;48.10;;;7.50;91.50;;;;;;6068388;23;20151;-88
2022/03/17 10:08:33;;;;;;;57.23;38.17;;;7.50;91.70;;;;;;6068522;23;20155;-88
2022/03/17 10:10:59;;;;;;;69.07;42.23;;;7.50;91.90;;;;;;6068188;23;20600;-88
2022/03/17 10:13:25;;;;;;;70.00;50.10;;;7.50;92.00;;;;;;6068344;23;20172;-89
2022/03/17 10:16:09;;;;;;;59.83;42.03;;;7.50;92.00;;;;;;6069842;23;20151;-88
2022/03/17 10:18:38;;;;;;;69.33;46.27;;;7.50;92.10;;;;;;6068335;23;20159;-88
2022/03/17 10:21:24;;;;;;;63.03;43.37;;;7.50;92.20;;;;;;6069868;23;20155;-88
2022/03/17 10:23:52;;;;;;;55.03;35.80;;;7.60;92.30;;;;;;6068283;23;20147;-89
2022/03/17 10:26:34;;;;;;;54.60;37.00;;;7.60;92.30;;;;;;6069830;23;20721;-89
2022/03/17 10:29:20;;;;;;;48.73;33.83;;;7.60;92.10;;;;;;6070147;23;20149;-89
2022/03/17 10:31:50;;;;;;;43.93;32.43;;;7.60;92.10;;;;;;6068236;23;20202;-89
2022/03/17 10:34:15;;;;;;;39.67;29.33;;;7.60;92.10;;;;;;6068212;23;20234;-89
2022/03/17 10:36:43;;;;;;;29.20;19.03;;;7.60;92.00;;;;;;6069356;23;20206;-89
2022/03/17 10:39:11;;;;;;;25.43;16.07;;;7.50;91.70;;;;;;6071220;23;20164;-90
2022/03/17 10:41:41;;;;;;;28.97;15.13;;;7.40;91.50;;;;;;6068617;23;20187;-89
2022/03/17 10:44:13;;;;;;;25.60;12.40;;;7.40;91.40;;;;;;6068092;23;20287;-89
2022/03/17 10:46:52;;;;;;;26.40;11.50;;;7.50;91.40;;;;;;6068438;23;20195;-89
2022/03/17 10:49:18;;;;;;;22.87;10.77;;;7.50;91.40;;;;;;6067974;23;20159;-89
2022/03/17 10:51:44;;;;;;;18.70;9.87;;;7.50;91.30;;;;;;6069347;23;20143;-89
2022/03/17 10:54:15;;;;;;;18.20;9.90;;;7.50;91.30;;;;;;6067927;23;20159;-89
2022/03/17 10:56:41;;;;;;;22.60;10.63;;;7.50;91.40;;;;;;6067765;23;20223;-89
2022/03/17 10:59:08;;;;;;;29.27;11.97;;;7.50;91.20;;;;;;6067798;23;20489;-89
2022/03/17 11:01:40;;;;;;;26.70;11.00;;;7.50;91.30;;;;;;6069737;23;20190;-90
2022/03/17 11:04:07;;;;;;;29.20;11.70;;;7.60;91.40;;;;;;6069274;23;20155;-88
2022/03/17 11:06:33;;;;;;;22.57;11.50;;;7.60;91.20;;;;;;6067393;23;20202;-88
2022/03/17 11:09:01;;;;;;;25.70;12.07;;;7.70;91.30;;;;;;6049328;23;20258;-88
2022/03/17 11:11:29;;;;;;;27.73;10.63;;;7.70;91.20;;;;;;6069647;23;20186;-88
2022/03/17 11:14:19;;;;;;;18.37;9.47;;;7.80;91.10;;;;;;6080656;23;20152;-92
2022/03/17 11:16:50;;;;;;;20.97;9.13;;;7.80;91.10;;;;;;6058719;23;20159;-92
2022/03/17 11:19:17;;;;;;;22.13;10.03;;;7.80;90.90;;;;;;6044004;23;20628;-88
2022/03/17 11:21:48;;;;;;;20.60;8.10;;;7.90;90.80;;;;;;6043693;23;20238;-88
2022/03/17 11:24:19;;;;;;;20.23;7.90;;;7.90;90.50;;;;;;6043653;23;20243;-88
2022/03/17 11:27:09;;;;;;;23.30;7.17;;;7.80;90.40;;;;;;6043497;23;20250;-88
2022/03/17 11:29:40;;;;;;;17.17;6.77;;;7.80;90.00;;;;;;6043407;23;20144;-88
2022/03/17 11:32:08;;;;;;;23.33;5.90;;;7.70;89.60;;;;;;6044443;23;20242;-89
2022/03/17 11:34:47;;;;;;;14.20;4.97;;;7.70;89.30;;;;;;6043299;23;20174;-88
2022/03/17 11:37:27;;;;;;;13.70;3.97;;;7.60;88.90;;;;;;6043368;23;20152;-88
2022/03/17 11:40:04;;;;;;;23.00;4.67;;;7.60;88.40;;;;;;6043451;23;20219;-88
2022/03/17 11:42:52;;;;;;;11.00;2.57;;;7.50;87.70;;;;;;6043500;23;20218;-88
2022/03/17 11:45:18;;;;;;;15.47;2.67;;;7.60;87.70;;;;;;6044234;23;20159;-88
2022/03/17 11:47:53;;;;;;;14.97;3.70;;;7.70;87.70;;;;;;6043244;23;20199;-88
2022/03/17 11:50:27;;;;;;;16.70;2.63;;;7.70;87.80;;;;;;6043282;23;20151;-87
2022/03/17 11:53:05;;;;;;;17.43;2.70;;;8.00;87.90;;;;;;6043336;23;20163;-86
2022/03/17 11:55:41;;;;;;;13.40;2.43;;;8.00;87.50;;;;;;6043505;23;20155;-88
2022/03/17 11:58:19;;;;;;;15.67;3.33;;;8.20;87.50;;;;;;6043327;23;20186;-88
2022/03/17 12:01:12;;;;;;;18.33;4.27;;;8.00;86.30;;;;;;6043114;23;20159;-89
2022/03/17 12:03:45;;;;;;;11.60;3.20;;;8.00;86.80;;;;;;6043186;23;20179;-88
2022/03/17 12:06:19;;;;;;;10.40;2.50;;;7.90;86.50;;;;;;6043479;23;20183;-88
2022/03/17 12:08:58;;;;;;;13.23;2.57;;;7.70;86.30;;;;;;6043221;23;20292;-88
2022/03/17 12:11:26;;;;;;;13.07;2.30;;;7.80;87.20;;;;;;6043115;23;20159;-88
2022/03/17 12:14:11;;;;;;;15.30;2.60;;;7.70;87.50;;;;;;6043779;23;20182;-88
2022/03/17 12:16:40;;;;;;;12.60;2.93;;;7.70;87.80;;;;;;6043204;23;20166;-87
2022/03/17 12:19:05;;;;;;;11.20;2.30;;;7.50;87.10;;;;;;6068772;23;20176;-89
2022/03/17 12:22:02;;;;;;;13.87;2.50;;;7.50;87.10;;;;;;6068668;23;20156;-89
2022/03/17 12:24:39;;;;;;;19.33;2.87;;;7.50;86.90;;;;;;6043081;23;20170;-89
2022/03/17 12:27:19;;;;;;;9.90;2.60;;;7.70;87.20;;;;;;6068660;23;20175;-90
2022/03/17 12:29:47;;;;;;;14.80;2.53;;;7.80;87.00;;;;;;6043126;23;20158;-89
2022/03/17 12:32:18;;;;;;;14.17;2.63;;;7.90;86.60;;;;;;6043046;23;20159;-90
2022/03/17 12:34:49;;;;;;;21.27;3.43;;;7.90;85.70;;;;;;6068340;23;20156;-88
2022/03/17 12:37:16;;;;;;;20.43;3.87;;;7.90;85.00;;;;;;6068411;23;20603;-89
2022/03/17 12:39:46;;;;;;;24.30;4.17;;;8.00;85.90;;;;;;6043200;23;20600;-90
2022/03/17 12:42:32;;;;;;;20.03;3.93;;;8.00;85.80;;;;;;6043378;23;20591;-89
2022/03/17 12:45:18;;;;;;;20.93;3.30;;;8.20;85.90;;;;;;6044627;23;20159;-90
2022/03/17 12:47:50;;;;;;;17.23;3.23;;;8.20;85.80;;;;;;6043139;23;20227;-90
2022/03/17 12:50:18;;;;;;;20.63;3.50;;;8.20;85.50;;;;;;6068954;23;20132;-89
2022/03/17 12:52:45;;;;;;;19.00;3.33;;;8.10;85.20;;;;;;6043284;23;20230;-89
2022/03/17 12:55:16;;;;;;;22.37;4.10;;;8.10;85.20;;;;;;6068792;23;20175;-90
2022/03/17 12:57:42;;;;;;;17.23;4.13;;;8.10;85.10;;;;;;6068903;23;20516;-90
2022/03/17 13:00:15;;;;;;;23.87;3.73;;;7.90;84.80;;;;;;6068821;23;20234;-90